sensor_id;sensor_type;location;lat;lon;timestamp;temperature;humidity
47310;DHT22;33046;52.270;6.832;2024-02-23T00:00:24;10.30;99.90
47310;DHT22;33046;52.270;6.832;2024-02-23T00:02:31;10.20;99.90
47310;DHT22;33046;52.270;6.832;2024-02-23T00:04:39;10.20;99.90
47310;DHT22;33046;52.270;6.832;2024-02-23T00:06:46;10.20;99.90
47310;DHT22;33046;52.270;6.832;2024-02-23T00:08:53;10.10;99.90
47310;DHT22;33046;52.270;6.832;2024-02-23T00:11:00;10.10;99.90
47310;DHT22;33046;52.270;6.832;2024-02-23T00:13:07;10.10;99.90
47310;DHT22;33046;52.270;6.832;2024-02-23T00:15:14;10.10;99.90
47310;DHT22;33046;52.270;6.832;2024-02-23T00:17:20;10.10;99.90
47310;DHT22;33046;52.270;6.832;2024-02-23T00:19:27;10.10;99.90
47310;DHT22;33046;52.270;6.832;2024-02-23T00:21:35;10.00;99.90
47310;DHT22;33046;52.270;6.832;2024-02-23T00:23:42;10.00;99.90
47310;DHT22;33046;52.270;6.832;2024-02-23T00:25:49;10.00;99.90
47310;DHT22;33046;52.270;6.832;2024-02-23T00:27:56;9.90;99.90
47310;DHT22;33046;52.270;6.832;2024-02-23T00:30:04;9.90;99.90
47310;DHT22;33046;52.270;6.832;2024-02-23T00:32:11;9.90;99.90
47310;DHT22;33046;52.270;6.832;2024-02-23T00:34:18;9.80;99.90
47310;DHT22;33046;52.270;6.832;2024-02-23T00:36:25;9.80;99.90
47310;DHT22;33046;52.270;6.832;2024-02-23T00:38:33;9.80;99.90
47310;DHT22;33046;52.270;6.832;2024-02-23T00:40:40;9.80;99.90
47310;DHT22;33046;52.270;6.832;2024-02-23T00:42:47;9.70;99.90
47310;DHT22;33046;52.270;6.832;2024-02-23T00:44:53;9.80;99.90
47310;DHT22;33046;52.270;6.832;2024-02-23T00:47:03;9.80;99.90
47310;DHT22;33046;52.270;6.832;2024-02-23T00:49:10;9.70;99.90
47310;DHT22;33046;52.270;6.832;2024-02-23T00:51:17;9.70;99.90
47310;DHT22;33046;52.270;6.832;2024-02-23T00:53:23;9.70;99.90
47310;DHT22;33046;52.270;6.832;2024-02-23T00:55:32;9.70;99.90
47310;DHT22;33046;52.270;6.832;2024-02-23T00:57:38;9.70;99.90
47310;DHT22;33046;52.270;6.832;2024-02-23T00:59:45;9.70;99.90
47310;DHT22;33046;52.270;6.832;2024-02-23T01:01:52;9.70;99.90
47310;DHT22;33046;52.270;6.832;2024-02-23T01:03:59;9.70;99.90
47310;DHT22;33046;52.270;6.832;2024-02-23T01:06:06;9.70;99.90
47310;DHT22;33046;52.270;6.832;2024-02-23T01:08:13;9.70;99.90
47310;DHT22;33046;52.270;6.832;2024-02-23T01:10:20;9.70;99.90
47310;DHT22;33046;52.270;6.832;2024-02-23T01:12:28;9.60;99.90
47310;DHT22;33046;52.270;6.832;2024-02-23T01:14:35;9.60;99.90
47310;DHT22;33046;52.270;6.832;2024-02-23T01:16:41;9.60;99.90
47310;DHT22;33046;52.270;6.832;2024-02-23T01:18:48;9.60;99.90
47310;DHT22;33046;52.270;6.832;2024-02-23T01:20:56;9.60;99.90
47310;DHT22;33046;52.270;6.832;2024-02-23T01:23:03;9.60;99.90
47310;DHT22;33046;52.270;6.832;2024-02-23T01:25:10;9.60;99.90
47310;DHT22;33046;52.270;6.832;2024-02-23T01:27:17;9.60;99.90
47310;DHT22;33046;52.270;6.832;2024-02-23T01:29:26;9.60;99.90
47310;DHT22;33046;52.270;6.832;2024-02-23T01:31:32;9.60;99.90
47310;DHT22;33046;52.270;6.832;2024-02-23T01:33:39;9.60;99.90
47310;DHT22;33046;52.270;6.832;2024-02-23T01:35:46;9.60;99.90
47310;DHT22;33046;52.270;6.832;2024-02-23T01:37:53;9.60;99.90
47310;DHT22;33046;52.270;6.832;2024-02-23T01:40:00;9.50;99.90
47310;DHT22;33046;52.270;6.832;2024-02-23T01:42:08;9.50;99.90
47310;DHT22;33046;52.270;6.832;2024-02-23T01:44:15;9.50;99.90
47310;DHT22;33046;52.270;6.832;2024-02-23T01:46:23;9.50;99.90
47310;DHT22;33046;52.270;6.832;2024-02-23T01:48:31;9.50;99.90
47310;DHT22;33046;52.270;6.832;2024-02-23T01:50:38;9.40;99.90
47310;DHT22;33046;52.270;6.832;2024-02-23T01:52:45;9.40;99.90
47310;DHT22;33046;52.270;6.832;2024-02-23T01:54:53;9.50;99.90
47310;DHT22;33046;52.270;6.832;2024-02-23T01:57:01;9.40;99.90
47310;DHT22;33046;52.270;6.832;2024-02-23T01:59:11;9.30;99.90
47310;DHT22;33046;52.270;6.832;2024-02-23T02:01:18;9.30;99.90
47310;DHT22;33046;52.270;6.832;2024-02-23T02:03:27;9.30;99.90
47310;DHT22;33046;52.270;6.832;2024-02-23T02:05:35;9.20;99.90
47310;DHT22;33046;52.270;6.832;2024-02-23T02:07:42;9.20;99.90
47310;DHT22;33046;52.270;6.832;2024-02-23T02:09:49;9.20;99.90
47310;DHT22;33046;52.270;6.832;2024-02-23T02:11:58;9.20;99.90
47310;DHT22;33046;52.270;6.832;2024-02-23T02:14:05;9.20;99.90
47310;DHT22;33046;52.270;6.832;2024-02-23T02:16:11;9.20;99.90
47310;DHT22;33046;52.270;6.832;2024-02-23T02:18:18;9.10;99.90
47310;DHT22;33046;52.270;6.832;2024-02-23T02:20:28;9.20;99.90
47310;DHT22;33046;52.270;6.832;2024-02-23T02:22:38;9.20;99.90
47310;DHT22;33046;52.270;6.832;2024-02-23T02:24:45;9.10;99.90
47310;DHT22;33046;52.270;6.832;2024-02-23T02:26:52;9.10;99.90
47310;DHT22;33046;52.270;6.832;2024-02-23T02:28:59;9.10;99.90
47310;DHT22;33046;52.270;6.832;2024-02-23T02:31:06;9.10;99.90
47310;DHT22;33046;52.270;6.832;2024-02-23T02:33:13;9.10;99.90
47310;DHT22;33046;52.270;6.832;2024-02-23T02:35:19;9.10;99.90
47310;DHT22;33046;52.270;6.832;2024-02-23T02:37:28;9.10;99.90
47310;DHT22;33046;52.270;6.832;2024-02-23T02:39:35;9.10;99.90
47310;DHT22;33046;52.270;6.832;2024-02-23T02:41:42;9.10;99.90
47310;DHT22;33046;52.270;6.832;2024-02-23T02:43:49;9.10;99.90
47310;DHT22;33046;52.270;6.832;2024-02-23T02:45:56;9.10;99.90
47310;DHT22;33046;52.270;6.832;2024-02-23T02:48:03;9.10;99.90
47310;DHT22;33046;52.270;6.832;2024-02-23T02:50:10;9.10;99.90
47310;DHT22;33046;52.270;6.832;2024-02-23T02:52:17;9.10;99.90
47310;DHT22;33046;52.270;6.832;2024-02-23T02:54:25;9.10;99.90
47310;DHT22;33046;52.270;6.832;2024-02-23T02:56:32;9.10;99.90
47310;DHT22;33046;52.270;6.832;2024-02-23T02:58:39;9.10;99.90
47310;DHT22;33046;52.270;6.832;2024-02-23T03:00:46;9.10;99.90
47310;DHT22;33046;52.270;6.832;2024-02-23T03:02:53;9.10;99.90
47310;DHT22;33046;52.270;6.832;2024-02-23T03:05:00;9.10;99.90
47310;DHT22;33046;52.270;6.832;2024-02-23T03:07:06;9.10;99.90
47310;DHT22;33046;52.270;6.832;2024-02-23T03:09:13;9.10;99.90
47310;DHT22;33046;52.270;6.832;2024-02-23T03:11:21;9.10;99.90
47310;DHT22;33046;52.270;6.832;2024-02-23T03:13:28;9.10;99.90
47310;DHT22;33046;52.270;6.832;2024-02-23T03:15:35;9.10;99.90
47310;DHT22;33046;52.270;6.832;2024-02-23T03:17:42;9.20;99.90
47310;DHT22;33046;52.270;6.832;2024-02-23T03:19:49;9.10;99.90
47310;DHT22;33046;52.270;6.832;2024-02-23T03:21:56;9.20;99.90
47310;DHT22;33046;52.270;6.832;2024-02-23T03:24:03;9.20;99.90
47310;DHT22;33046;52.270;6.832;2024-02-23T03:26:10;9.20;99.90
47310;DHT22;33046;52.270;6.832;2024-02-23T03:28:18;9.10;99.90
47310;DHT22;33046;52.270;6.832;2024-02-23T03:30:25;9.20;99.90
47310;DHT22;33046;52.270;6.832;2024-02-23T03:32:32;9.10;99.90
47310;DHT22;33046;52.270;6.832;2024-02-23T03:34:39;9.10;99.90
47310;DHT22;33046;52.270;6.832;2024-02-23T03:36:46;9.20;99.90
47310;DHT22;33046;52.270;6.832;2024-02-23T03:38:53;9.10;99.90
47310;DHT22;33046;52.270;6.832;2024-02-23T03:40:59;9.10;99.90
47310;DHT22;33046;52.270;6.832;2024-02-23T03:43:06;9.10;99.90
47310;DHT22;33046;52.270;6.832;2024-02-23T03:45:15;9.20;99.90
47310;DHT22;33046;52.270;6.832;2024-02-23T03:47:21;9.20;99.90
47310;DHT22;33046;52.270;6.832;2024-02-23T03:49:28;9.20;99.90
47310;DHT22;33046;52.270;6.832;2024-02-23T03:51:35;9.20;99.90
47310;DHT22;33046;52.270;6.832;2024-02-23T03:53:42;9.20;99.90
47310;DHT22;33046;52.270;6.832;2024-02-23T03:55:49;9.20;99.90
47310;DHT22;33046;52.270;6.832;2024-02-23T03:57:56;9.10;99.90
47310;DHT22;33046;52.270;6.832;2024-02-23T04:00:04;9.10;99.90
47310;DHT22;33046;52.270;6.832;2024-02-23T04:02:18;9.20;99.90
47310;DHT22;33046;52.270;6.832;2024-02-23T04:04:25;9.10;99.90
47310;DHT22;33046;52.270;6.832;2024-02-23T04:06:33;9.10;99.90
47310;DHT22;33046;52.270;6.832;2024-02-23T04:08:40;9.10;99.90
47310;DHT22;33046;52.270;6.832;2024-02-23T04:10:47;9.10;99.90
47310;DHT22;33046;52.270;6.832;2024-02-23T04:12:54;9.10;99.90
47310;DHT22;33046;52.270;6.832;2024-02-23T04:15:01;9.00;99.90
47310;DHT22;33046;52.270;6.832;2024-02-23T04:17:08;9.00;99.90
47310;DHT22;33046;52.270;6.832;2024-02-23T04:19:16;9.00;99.90
47310;DHT22;33046;52.270;6.832;2024-02-23T04:21:23;9.10;99.90
47310;DHT22;33046;52.270;6.832;2024-02-23T04:23:30;9.10;99.90
47310;DHT22;33046;52.270;6.832;2024-02-23T04:25:37;9.00;99.90
47310;DHT22;33046;52.270;6.832;2024-02-23T04:27:44;9.10;99.90
47310;DHT22;33046;52.270;6.832;2024-02-23T04:29:51;9.00;99.90
47310;DHT22;33046;52.270;6.832;2024-02-23T04:31:57;9.00;99.90
47310;DHT22;33046;52.270;6.832;2024-02-23T04:34:04;9.00;99.90
47310;DHT22;33046;52.270;6.832;2024-02-23T04:36:13;9.10;99.90
47310;DHT22;33046;52.270;6.832;2024-02-23T04:38:19;9.10;99.90
47310;DHT22;33046;52.270;6.832;2024-02-23T04:40:26;9.10;99.90
47310;DHT22;33046;52.270;6.832;2024-02-23T04:42:33;9.00;99.90
47310;DHT22;33046;52.270;6.832;2024-02-23T04:44:41;9.00;99.90
47310;DHT22;33046;52.270;6.832;2024-02-23T04:46:48;9.10;99.90
47310;DHT22;33046;52.270;6.832;2024-02-23T04:48:55;9.10;99.90
47310;DHT22;33046;52.270;6.832;2024-02-23T04:51:02;9.00;99.90
47310;DHT22;33046;52.270;6.832;2024-02-23T04:53:10;9.00;99.90
47310;DHT22;33046;52.270;6.832;2024-02-23T04:55:17;9.00;99.90
47310;DHT22;33046;52.270;6.832;2024-02-23T04:57:24;9.00;99.90
47310;DHT22;33046;52.270;6.832;2024-02-23T04:59:30;9.00;99.90
47310;DHT22;33046;52.270;6.832;2024-02-23T05:01:37;9.00;99.90
47310;DHT22;33046;52.270;6.832;2024-02-23T05:03:44;8.90;99.90
47310;DHT22;33046;52.270;6.832;2024-02-23T05:05:51;8.90;99.90
47310;DHT22;33046;52.270;6.832;2024-02-23T05:07:58;8.90;99.90
47310;DHT22;33046;52.270;6.832;2024-02-23T05:10:07;8.90;99.90
47310;DHT22;33046;52.270;6.832;2024-02-23T05:12:14;8.90;99.90
47310;DHT22;33046;52.270;6.832;2024-02-23T05:14:21;8.90;99.90
47310;DHT22;33046;52.270;6.832;2024-02-23T05:16:28;8.90;99.90
47310;DHT22;33046;52.270;6.832;2024-02-23T05:18:34;8.90;99.90
47310;DHT22;33046;52.270;6.832;2024-02-23T05:20:41;8.80;99.90
47310;DHT22;33046;52.270;6.832;2024-02-23T05:22:48;8.90;99.90
47310;DHT22;33046;52.270;6.832;2024-02-23T05:24:55;8.80;99.90
47310;DHT22;33046;52.270;6.832;2024-02-23T05:27:04;8.90;99.90
47310;DHT22;33046;52.270;6.832;2024-02-23T05:29:11;8.90;99.90
47310;DHT22;33046;52.270;6.832;2024-02-23T05:31:17;8.90;99.90
47310;DHT22;33046;52.270;6.832;2024-02-23T05:33:24;8.90;99.90
47310;DHT22;33046;52.270;6.832;2024-02-23T05:35:31;8.90;99.90
47310;DHT22;33046;52.270;6.832;2024-02-23T05:37:38;8.90;99.90
47310;DHT22;33046;52.270;6.832;2024-02-23T05:39:45;8.90;99.90
47310;DHT22;33046;52.270;6.832;2024-02-23T05:41:52;8.80;99.90
47310;DHT22;33046;52.270;6.832;2024-02-23T05:44:01;8.80;99.90
47310;DHT22;33046;52.270;6.832;2024-02-23T05:46:07;8.80;99.90
47310;DHT22;33046;52.270;6.832;2024-02-23T05:48:14;8.80;99.90
47310;DHT22;33046;52.270;6.832;2024-02-23T05:50:21;8.80;99.90
47310;DHT22;33046;52.270;6.832;2024-02-23T05:52:28;8.80;99.90
47310;DHT22;33046;52.270;6.832;2024-02-23T05:54:35;8.80;99.90
47310;DHT22;33046;52.270;6.832;2024-02-23T05:56:42;8.80;99.90
47310;DHT22;33046;52.270;6.832;2024-02-23T05:58:50;8.90;99.90
47310;DHT22;33046;52.270;6.832;2024-02-23T06:00:58;8.80;99.90
47310;DHT22;33046;52.270;6.832;2024-02-23T06:03:05;8.90;99.90
47310;DHT22;33046;52.270;6.832;2024-02-23T06:05:12;8.80;99.90
47310;DHT22;33046;52.270;6.832;2024-02-23T06:07:19;8.90;99.90
47310;DHT22;33046;52.270;6.832;2024-02-23T06:09:26;8.90;99.90
47310;DHT22;33046;52.270;6.832;2024-02-23T06:11:33;8.90;99.90
47310;DHT22;33046;52.270;6.832;2024-02-23T06:13:39;8.90;99.90
47310;DHT22;33046;52.270;6.832;2024-02-23T06:15:46;8.90;99.90
47310;DHT22;33046;52.270;6.832;2024-02-23T06:17:54;8.80;99.90
47310;DHT22;33046;52.270;6.832;2024-02-23T06:20:01;8.80;99.90
47310;DHT22;33046;52.270;6.832;2024-02-23T06:22:09;8.80;99.90
47310;DHT22;33046;52.270;6.832;2024-02-23T06:24:16;8.80;99.90
47310;DHT22;33046;52.270;6.832;2024-02-23T06:26:23;8.80;99.90
47310;DHT22;33046;52.270;6.832;2024-02-23T06:28:30;8.80;99.90
47310;DHT22;33046;52.270;6.832;2024-02-23T06:30:37;8.80;99.90
47310;DHT22;33046;52.270;6.832;2024-02-23T06:32:44;8.80;99.90
47310;DHT22;33046;52.270;6.832;2024-02-23T06:34:52;8.80;99.90
47310;DHT22;33046;52.270;6.832;2024-02-23T06:36:59;8.80;99.90
47310;DHT22;33046;52.270;6.832;2024-02-23T06:39:05;8.80;99.90
47310;DHT22;33046;52.270;6.832;2024-02-23T06:41:12;8.80;99.90
47310;DHT22;33046;52.270;6.832;2024-02-23T06:43:19;8.80;99.90
47310;DHT22;33046;52.270;6.832;2024-02-23T06:45:27;8.80;99.90
47310;DHT22;33046;52.270;6.832;2024-02-23T06:47:34;8.80;99.90
47310;DHT22;33046;52.270;6.832;2024-02-23T06:49:41;8.80;99.90
47310;DHT22;33046;52.270;6.832;2024-02-23T06:51:50;8.80;99.90
47310;DHT22;33046;52.270;6.832;2024-02-23T06:53:57;8.80;99.90
47310;DHT22;33046;52.270;6.832;2024-02-23T06:56:04;8.80;99.90
47310;DHT22;33046;52.270;6.832;2024-02-23T06:58:11;8.80;99.90
47310;DHT22;33046;52.270;6.832;2024-02-23T07:00:18;8.80;99.90
47310;DHT22;33046;52.270;6.832;2024-02-23T07:02:25;8.80;99.90
47310;DHT22;33046;52.270;6.832;2024-02-23T07:04:32;8.80;99.90
47310;DHT22;33046;52.270;6.832;2024-02-23T07:06:39;8.80;99.90
47310;DHT22;33046;52.270;6.832;2024-02-23T07:08:47;8.90;99.90
47310;DHT22;33046;52.270;6.832;2024-02-23T07:10:54;8.80;99.90
47310;DHT22;33046;52.270;6.832;2024-02-23T07:13:01;8.90;99.90
47310;DHT22;33046;52.270;6.832;2024-02-23T07:15:08;8.90;99.90
47310;DHT22;33046;52.270;6.832;2024-02-23T07:17:16;8.90;99.90
47310;DHT22;33046;52.270;6.832;2024-02-23T07:19:23;8.90;99.90
47310;DHT22;33046;52.270;6.832;2024-02-23T07:21:30;8.90;99.90
47310;DHT22;33046;52.270;6.832;2024-02-23T07:23:37;8.90;99.90
47310;DHT22;33046;52.270;6.832;2024-02-23T07:25:45;8.90;99.90
47310;DHT22;33046;52.270;6.832;2024-02-23T07:27:52;8.90;99.90
47310;DHT22;33046;52.270;6.832;2024-02-23T07:29:59;8.90;99.90
47310;DHT22;33046;52.270;6.832;2024-02-23T07:32:06;8.90;99.90
47310;DHT22;33046;52.270;6.832;2024-02-23T07:34:13;8.90;99.90
47310;DHT22;33046;52.270;6.832;2024-02-23T07:36:19;9.00;99.90
47310;DHT22;33046;52.270;6.832;2024-02-23T07:38:26;9.00;99.90
47310;DHT22;33046;52.270;6.832;2024-02-23T07:40:36;9.00;99.90
47310;DHT22;33046;52.270;6.832;2024-02-23T07:42:44;9.00;99.90
47310;DHT22;33046;52.270;6.832;2024-02-23T07:44:51;9.00;99.90
47310;DHT22;33046;52.270;6.832;2024-02-23T07:46:58;9.00;99.90
47310;DHT22;33046;52.270;6.832;2024-02-23T07:49:05;9.00;99.90
47310;DHT22;33046;52.270;6.832;2024-02-23T07:51:12;9.00;99.90
47310;DHT22;33046;52.270;6.832;2024-02-23T07:53:19;9.00;99.90
47310;DHT22;33046;52.270;6.832;2024-02-23T07:55:26;9.00;99.90
47310;DHT22;33046;52.270;6.832;2024-02-23T07:57:32;9.10;99.90
47310;DHT22;33046;52.270;6.832;2024-02-23T07:59:41;9.10;99.90
47310;DHT22;33046;52.270;6.832;2024-02-23T08:01:48;9.10;99.90
47310;DHT22;33046;52.270;6.832;2024-02-23T08:03:55;9.10;99.90
47310;DHT22;33046;52.270;6.832;2024-02-23T08:06:03;9.20;99.90
47310;DHT22;33046;52.270;6.832;2024-02-23T08:08:10;9.20;99.90
47310;DHT22;33046;52.270;6.832;2024-02-23T08:10:17;9.20;99.90
47310;DHT22;33046;52.270;6.832;2024-02-23T08:12:23;9.20;99.90
47310;DHT22;33046;52.270;6.832;2024-02-23T08:14:30;9.30;99.90
47310;DHT22;33046;52.270;6.832;2024-02-23T08:16:38;9.30;99.90
47310;DHT22;33046;52.270;6.832;2024-02-23T08:18:45;9.30;99.90
47310;DHT22;33046;52.270;6.832;2024-02-23T08:20:58;9.30;99.90
47310;DHT22;33046;52.270;6.832;2024-02-23T08:23:05;9.30;99.90
47310;DHT22;33046;52.270;6.832;2024-02-23T08:25:12;9.40;99.90
47310;DHT22;33046;52.270;6.832;2024-02-23T08:27:23;9.40;99.90
47310;DHT22;33046;52.270;6.832;2024-02-23T08:29:29;9.40;99.90
47310;DHT22;33046;52.270;6.832;2024-02-23T08:31:36;9.50;99.90
47310;DHT22;33046;52.270;6.832;2024-02-23T08:33:46;9.50;99.90
47310;DHT22;33046;52.270;6.832;2024-02-23T08:35:52;9.50;99.90
47310;DHT22;33046;52.270;6.832;2024-02-23T08:37:59;9.50;99.90
47310;DHT22;33046;52.270;6.832;2024-02-23T08:40:07;9.60;99.90
47310;DHT22;33046;52.270;6.832;2024-02-23T08:42:14;9.60;99.90
47310;DHT22;33046;52.270;6.832;2024-02-23T08:44:21;9.70;99.90
47310;DHT22;33046;52.270;6.832;2024-02-23T08:46:28;9.70;99.90
47310;DHT22;33046;52.270;6.832;2024-02-23T08:48:35;9.70;99.90
47310;DHT22;33046;52.270;6.832;2024-02-23T08:50:43;9.80;99.90
47310;DHT22;33046;52.270;6.832;2024-02-23T08:52:50;9.80;99.90
47310;DHT22;33046;52.270;6.832;2024-02-23T08:54:57;9.80;99.90
47310;DHT22;33046;52.270;6.832;2024-02-23T08:57:04;9.80;99.90
47310;DHT22;33046;52.270;6.832;2024-02-23T08:59:11;9.80;99.90
47310;DHT22;33046;52.270;6.832;2024-02-23T09:01:18;9.80;99.90
47310;DHT22;33046;52.270;6.832;2024-02-23T09:03:25;9.80;99.90
47310;DHT22;33046;52.270;6.832;2024-02-23T09:05:32;9.90;99.90
47310;DHT22;33046;52.270;6.832;2024-02-23T09:07:40;9.90;99.90
47310;DHT22;33046;52.270;6.832;2024-02-23T09:09:47;9.90;99.90
47310;DHT22;33046;52.270;6.832;2024-02-23T09:11:54;10.00;99.90
47310;DHT22;33046;52.270;6.832;2024-02-23T09:14:01;10.00;99.90
47310;DHT22;33046;52.270;6.832;2024-02-23T09:16:08;10.10;99.90
47310;DHT22;33046;52.270;6.832;2024-02-23T09:18:15;10.10;99.90
47310;DHT22;33046;52.270;6.832;2024-02-23T09:20:21;10.20;99.90
47310;DHT22;33046;52.270;6.832;2024-02-23T09:22:28;10.20;99.90
47310;DHT22;33046;52.270;6.832;2024-02-23T09:24:39;10.20;99.90
47310;DHT22;33046;52.270;6.832;2024-02-23T09:26:46;10.20;99.90
47310;DHT22;33046;52.270;6.832;2024-02-23T09:28:53;10.20;99.90
47310;DHT22;33046;52.270;6.832;2024-02-23T09:31:00;10.20;99.80
47310;DHT22;33046;52.270;6.832;2024-02-23T09:33:07;10.20;99.90
47310;DHT22;33046;52.270;6.832;2024-02-23T09:35:14;10.20;99.70
47310;DHT22;33046;52.270;6.832;2024-02-23T09:37:21;10.20;99.70
47310;DHT22;33046;52.270;6.832;2024-02-23T09:39:27;10.20;99.20
47310;DHT22;33046;52.270;6.832;2024-02-23T09:41:37;10.30;99.90
47310;DHT22;33046;52.270;6.832;2024-02-23T09:43:46;10.30;99.90
47310;DHT22;33046;52.270;6.832;2024-02-23T09:45:53;10.30;99.90
47310;DHT22;33046;52.270;6.832;2024-02-23T09:48:02;10.30;99.40
47310;DHT22;33046;52.270;6.832;2024-02-23T09:50:10;10.30;99.70
47310;DHT22;33046;52.270;6.832;2024-02-23T09:52:19;10.30;99.70
47310;DHT22;33046;52.270;6.832;2024-02-23T09:54:27;10.40;99.50
47310;DHT22;33046;52.270;6.832;2024-02-23T09:56:36;10.40;98.90
47310;DHT22;33046;52.270;6.832;2024-02-23T09:58:44;10.40;99.20
47310;DHT22;33046;52.270;6.832;2024-02-23T10:00:51;10.40;99.20
47310;DHT22;33046;52.270;6.832;2024-02-23T10:02:58;10.40;99.00
47310;DHT22;33046;52.270;6.832;2024-02-23T10:05:05;10.50;99.20
47310;DHT22;33046;52.270;6.832;2024-02-23T10:07:15;10.50;99.00
47310;DHT22;33046;52.270;6.832;2024-02-23T10:09:22;10.40;99.10
47310;DHT22;33046;52.270;6.832;2024-02-23T10:11:28;10.40;98.80
47310;DHT22;33046;52.270;6.832;2024-02-23T10:13:37;10.40;98.70
47310;DHT22;33046;52.270;6.832;2024-02-23T10:15:44;10.40;98.80
47310;DHT22;33046;52.270;6.832;2024-02-23T10:17:56;10.40;98.80
47310;DHT22;33046;52.270;6.832;2024-02-23T10:20:04;10.30;99.40
47310;DHT22;33046;52.270;6.832;2024-02-23T10:22:11;10.30;99.00
47310;DHT22;33046;52.270;6.832;2024-02-23T10:24:18;10.30;99.20
47310;DHT22;33046;52.270;6.832;2024-02-23T10:26:26;10.30;99.20
47310;DHT22;33046;52.270;6.832;2024-02-23T10:28:34;10.40;99.20
47310;DHT22;33046;52.270;6.832;2024-02-23T10:30:42;10.30;99.00
47310;DHT22;33046;52.270;6.832;2024-02-23T10:32:50;10.30;99.20
47310;DHT22;33046;52.270;6.832;2024-02-23T10:35:00;10.30;99.40
47310;DHT22;33046;52.270;6.832;2024-02-23T10:37:07;10.30;99.50
47310;DHT22;33046;52.270;6.832;2024-02-23T10:39:16;10.30;99.30
47310;DHT22;33046;52.270;6.832;2024-02-23T10:41:23;10.20;99.50
47310;DHT22;33046;52.270;6.832;2024-02-23T10:43:33;10.20;99.90
47310;DHT22;33046;52.270;6.832;2024-02-23T10:45:44;10.20;99.70
47310;DHT22;33046;52.270;6.832;2024-02-23T10:47:52;10.20;99.50
47310;DHT22;33046;52.270;6.832;2024-02-23T10:50:00;10.20;99.70
47310;DHT22;33046;52.270;6.832;2024-02-23T10:52:09;10.20;99.90
47310;DHT22;33046;52.270;6.832;2024-02-23T10:54:16;10.20;99.70
47310;DHT22;33046;52.270;6.832;2024-02-23T10:56:23;10.20;99.90
47310;DHT22;33046;52.270;6.832;2024-02-23T10:58:30;10.10;99.80
47310;DHT22;33046;52.270;6.832;2024-02-23T11:00:37;10.10;99.90
47310;DHT22;33046;52.270;6.832;2024-02-23T11:02:50;10.10;99.50
47310;DHT22;33046;52.270;6.832;2024-02-23T11:04:58;10.10;99.90
47310;DHT22;33046;52.270;6.832;2024-02-23T11:07:13;10.10;99.90
47310;DHT22;33046;52.270;6.832;2024-02-23T11:09:21;10.10;99.90
47310;DHT22;33046;52.270;6.832;2024-02-23T11:11:28;10.10;99.90
47310;DHT22;33046;52.270;6.832;2024-02-23T11:13:39;10.10;99.90
47310;DHT22;33046;52.270;6.832;2024-02-23T11:15:46;10.10;99.90
47310;DHT22;33046;52.270;6.832;2024-02-23T11:17:55;10.10;99.90
47310;DHT22;33046;52.270;6.832;2024-02-23T11:20:03;10.10;99.90
47310;DHT22;33046;52.270;6.832;2024-02-23T11:22:10;10.10;99.90
47310;DHT22;33046;52.270;6.832;2024-02-23T11:24:19;10.10;99.90
47310;DHT22;33046;52.270;6.832;2024-02-23T11:26:27;10.10;99.90
47310;DHT22;33046;52.270;6.832;2024-02-23T11:28:41;10.20;99.90
47310;DHT22;33046;52.270;6.832;2024-02-23T11:30:48;10.20;99.90
47310;DHT22;33046;52.270;6.832;2024-02-23T11:32:59;10.10;99.90
47310;DHT22;33046;52.270;6.832;2024-02-23T11:35:07;10.10;99.90
47310;DHT22;33046;52.270;6.832;2024-02-23T11:37:18;10.20;99.90
47310;DHT22;33046;52.270;6.832;2024-02-23T11:39:26;10.20;99.90
47310;DHT22;33046;52.270;6.832;2024-02-23T11:41:33;10.20;99.90
47310;DHT22;33046;52.270;6.832;2024-02-23T11:43:42;10.20;99.90
47310;DHT22;33046;52.270;6.832;2024-02-23T11:45:49;10.20;99.90
47310;DHT22;33046;52.270;6.832;2024-02-23T11:47:56;10.20;99.90
47310;DHT22;33046;52.270;6.832;2024-02-23T11:50:06;10.20;99.90
47310;DHT22;33046;52.270;6.832;2024-02-23T11:52:13;10.20;99.90
47310;DHT22;33046;52.270;6.832;2024-02-23T11:54:20;10.20;99.90
47310;DHT22;33046;52.270;6.832;2024-02-23T11:56:27;10.20;99.90
47310;DHT22;33046;52.270;6.832;2024-02-23T11:58:35;10.20;99.90
47310;DHT22;33046;52.270;6.832;2024-02-23T12:00:41;10.10;99.90
47310;DHT22;33046;52.270;6.832;2024-02-23T12:02:48;10.10;99.90
47310;DHT22;33046;52.270;6.832;2024-02-23T12:04:55;10.20;99.90
47310;DHT22;33046;52.270;6.832;2024-02-23T12:07:04;10.20;99.90
47310;DHT22;33046;52.270;6.832;2024-02-23T12:09:11;10.10;99.90
47310;DHT22;33046;52.270;6.832;2024-02-23T12:11:19;10.20;99.90
47310;DHT22;33046;52.270;6.832;2024-02-23T12:13:26;10.20;99.90
47310;DHT22;33046;52.270;6.832;2024-02-23T12:15:33;10.10;99.90
47310;DHT22;33046;52.270;6.832;2024-02-23T12:17:46;10.20;99.90
47310;DHT22;33046;52.270;6.832;2024-02-23T12:19:58;10.20;99.90
47310;DHT22;33046;52.270;6.832;2024-02-23T12:22:06;10.10;99.90
47310;DHT22;33046;52.270;6.832;2024-02-23T12:24:13;10.10;99.90
47310;DHT22;33046;52.270;6.832;2024-02-23T12:26:20;10.20;99.90
47310;DHT22;33046;52.270;6.832;2024-02-23T12:28:27;10.20;99.90
47310;DHT22;33046;52.270;6.832;2024-02-23T12:30:34;10.10;99.90
47310;DHT22;33046;52.270;6.832;2024-02-23T12:32:41;10.10;99.90
47310;DHT22;33046;52.270;6.832;2024-02-23T12:34:48;10.10;99.90
47310;DHT22;33046;52.270;6.832;2024-02-23T12:36:55;10.10;99.90
47310;DHT22;33046;52.270;6.832;2024-02-23T12:39:03;10.10;99.90
47310;DHT22;33046;52.270;6.832;2024-02-23T12:41:10;10.10;99.90
47310;DHT22;33046;52.270;6.832;2024-02-23T12:43:17;10.10;99.90
47310;DHT22;33046;52.270;6.832;2024-02-23T12:45:24;10.10;99.90
47310;DHT22;33046;52.270;6.832;2024-02-23T12:47:31;10.10;99.90
47310;DHT22;33046;52.270;6.832;2024-02-23T12:49:38;10.10;99.90
47310;DHT22;33046;52.270;6.832;2024-02-23T12:51:46;10.10;99.90
47310;DHT22;33046;52.270;6.832;2024-02-23T12:53:53;10.00;99.90
47310;DHT22;33046;52.270;6.832;2024-02-23T12:56:02;10.10;99.90
47310;DHT22;33046;52.270;6.832;2024-02-23T12:58:09;10.10;99.90
47310;DHT22;33046;52.270;6.832;2024-02-23T13:00:17;10.00;99.90
47310;DHT22;33046;52.270;6.832;2024-02-23T13:02:24;10.00;99.90
47310;DHT22;33046;52.270;6.832;2024-02-23T13:04:30;10.00;99.90
47310;DHT22;33046;52.270;6.832;2024-02-23T13:06:38;10.00;99.90
47310;DHT22;33046;52.270;6.832;2024-02-23T13:08:45;10.10;99.90
47310;DHT22;33046;52.270;6.832;2024-02-23T13:10:52;10.10;99.90
47310;DHT22;33046;52.270;6.832;2024-02-23T13:13:01;10.10;99.90
47310;DHT22;33046;52.270;6.832;2024-02-23T13:15:08;10.10;99.90
47310;DHT22;33046;52.270;6.832;2024-02-23T13:17:15;10.10;99.90
47310;DHT22;33046;52.270;6.832;2024-02-23T13:19:22;10.10;99.90
47310;DHT22;33046;52.270;6.832;2024-02-23T13:21:29;10.10;99.90
47310;DHT22;33046;52.270;6.832;2024-02-23T13:23:36;10.20;99.90
47310;DHT22;33046;52.270;6.832;2024-02-23T13:25:44;10.10;99.90
47310;DHT22;33046;52.270;6.832;2024-02-23T13:27:51;10.20;99.90
47310;DHT22;33046;52.270;6.832;2024-02-23T13:29:59;10.20;99.90
47310;DHT22;33046;52.270;6.832;2024-02-23T13:32:06;10.20;99.90